sensor_id;sensor_type;location;lat;lon;timestamp;temperature;humidity
36280;DHT22;22317;47.936;12.742;2022-07-22T00:15:48;17.10;61.00
36280;DHT22;22317;47.936;12.742;2022-07-22T00:45:07;16.80;61.70
36280;DHT22;22317;47.936;12.742;2022-07-22T01:09:43;16.50;62.00
36280;DHT22;22317;47.936;12.742;2022-07-22T01:17:03;16.60;61.70
36280;DHT22;22317;47.936;12.742;2022-07-22T01:48:50;16.30;62.60
36280;DHT22;22317;47.936;12.742;2022-07-22T01:56:11;16.30;62.70
36280;DHT22;22317;47.936;12.742;2022-07-22T02:06:07;16.30;62.60
36280;DHT22;22317;47.936;12.742;2022-07-22T02:08:34;16.30;62.80
36280;DHT22;22317;47.936;12.742;2022-07-22T02:13:58;16.20;62.80
36280;DHT22;22317;47.936;12.742;2022-07-22T02:26:13;16.10;62.90
36280;DHT22;22317;47.936;12.742;2022-07-22T02:31:05;16.20;63.00
36280;DHT22;22317;47.936;12.742;2022-07-22T02:38:27;16.10;62.80
36280;DHT22;22317;47.936;12.742;2022-07-22T02:45:46;16.10;63.10
36280;DHT22;22317;47.936;12.742;2022-07-22T02:58:05;16.00;63.00
36280;DHT22;22317;47.936;12.742;2022-07-22T03:07:59;16.00;63.30
36280;DHT22;22317;47.936;12.742;2022-07-22T03:17:44;16.00;63.40
36280;DHT22;22317;47.936;12.742;2022-07-22T03:20:10;16.00;63.40
36280;DHT22;22317;47.936;12.742;2022-07-22T03:22:36;16.00;63.60
36280;DHT22;22317;47.936;12.742;2022-07-22T03:25:04;16.00;63.50
36280;DHT22;22317;47.936;12.742;2022-07-22T03:39:43;16.00;63.50
36280;DHT22;22317;47.936;12.742;2022-07-22T03:56:56;16.10;63.20
36280;DHT22;22317;47.936;12.742;2022-07-22T04:06:43;16.10;63.10
36280;DHT22;22317;47.936;12.742;2022-07-22T04:09:17;16.10;63.10
36280;DHT22;22317;47.936;12.742;2022-07-22T04:16:39;16.20;63.10
36280;DHT22;22317;47.936;12.742;2022-07-22T04:29:22;16.30;63.30
36280;DHT22;22317;47.936;12.742;2022-07-22T04:34:17;16.40;63.10
36280;DHT22;22317;47.936;12.742;2022-07-22T04:36:43;16.50;63.20
36280;DHT22;22317;47.936;12.742;2022-07-22T04:41:38;16.60;63.00
36280;DHT22;22317;47.936;12.742;2022-07-22T04:44:04;16.60;63.50
36280;DHT22;22317;47.936;12.742;2022-07-22T04:46:32;16.60;62.90
36280;DHT22;22317;47.936;12.742;2022-07-22T04:54:05;16.70;62.90
36280;DHT22;22317;47.936;12.742;2022-07-22T04:56:35;16.70;63.00
36280;DHT22;22317;47.936;12.742;2022-07-22T05:01:30;16.80;63.20
36280;DHT22;22317;47.936;12.742;2022-07-22T05:03:56;16.80;63.80
36280;DHT22;22317;47.936;12.742;2022-07-22T05:16:12;17.00;63.10
36280;DHT22;22317;47.936;12.742;2022-07-22T05:21:07;17.10;63.20
36280;DHT22;22317;47.936;12.742;2022-07-22T05:23:33;17.20;63.20
36280;DHT22;22317;47.936;12.742;2022-07-22T05:26:00;17.20;63.20
36280;DHT22;22317;47.936;12.742;2022-07-22T05:30:52;17.30;63.50
36280;DHT22;22317;47.936;12.742;2022-07-22T05:36:06;17.40;63.60
36280;DHT22;22317;47.936;12.742;2022-07-22T05:38:40;17.50;63.60
36280;DHT22;22317;47.936;12.742;2022-07-22T05:48:30;17.70;63.50
36280;DHT22;22317;47.936;12.742;2022-07-22T05:50:56;17.80;64.10
36280;DHT22;22317;47.936;12.742;2022-07-22T05:53:21;17.90;63.90
36280;DHT22;22317;47.936;12.742;2022-07-22T05:55:47;18.00;63.40
36280;DHT22;22317;47.936;12.742;2022-07-22T05:58:13;18.00;63.30
36280;DHT22;22317;47.936;12.742;2022-07-22T06:00:40;18.10;64.00
36280;DHT22;22317;47.936;12.742;2022-07-22T06:03:05;18.20;63.90
36280;DHT22;22317;47.936;12.742;2022-07-22T06:05:33;18.20;63.80
36280;DHT22;22317;47.936;12.742;2022-07-22T06:08:01;18.30;63.80
36280;DHT22;22317;47.936;12.742;2022-07-22T06:10:37;18.40;63.20
36280;DHT22;22317;47.936;12.742;2022-07-22T06:13:03;18.40;63.70
36280;DHT22;22317;47.936;12.742;2022-07-22T06:15:29;18.50;63.20
36280;DHT22;22317;47.936;12.742;2022-07-22T06:17:55;18.50;63.70
36280;DHT22;22317;47.936;12.742;2022-07-22T06:20:21;18.60;63.70
36280;DHT22;22317;47.936;12.742;2022-07-22T06:22:47;14.50;60.90
36280;DHT22;22317;47.936;12.742;2022-07-22T06:25:13;18.80;62.90
36280;DHT22;22317;47.936;12.742;2022-07-22T06:27:39;18.80;63.50
36280;DHT22;22317;47.936;12.742;2022-07-22T06:30:06;18.90;63.40
36280;DHT22;22317;47.936;12.742;2022-07-22T06:32:35;19.00;63.30
36280;DHT22;22317;47.936;12.742;2022-07-22T06:35:02;19.10;62.50
36280;DHT22;22317;47.936;12.742;2022-07-22T06:37:28;19.10;63.10
36280;DHT22;22317;47.936;12.742;2022-07-22T06:39:53;19.10;62.90
36280;DHT22;22317;47.936;12.742;2022-07-22T06:42:29;19.20;62.90
36280;DHT22;22317;47.936;12.742;2022-07-22T06:45:21;19.30;62.90
36280;DHT22;22317;47.936;12.742;2022-07-22T06:47:47;19.40;62.80
36280;DHT22;22317;47.936;12.742;2022-07-22T06:50:17;19.50;62.80
36280;DHT22;22317;47.936;12.742;2022-07-22T06:52:43;19.50;62.70
36280;DHT22;22317;47.936;12.742;2022-07-22T06:55:12;19.60;62.40
36280;DHT22;22317;47.936;12.742;2022-07-22T06:57:44;19.70;62.40
36280;DHT22;22317;47.936;12.742;2022-07-22T07:00:11;19.80;62.20
36280;DHT22;22317;47.936;12.742;2022-07-22T07:02:58;19.90;62.20
36280;DHT22;22317;47.936;12.742;2022-07-22T07:05:25;19.90;62.10
36280;DHT22;22317;47.936;12.742;2022-07-22T07:07:53;20.00;62.00
36280;DHT22;22317;47.936;12.742;2022-07-22T07:10:19;20.10;61.80
36280;DHT22;22317;47.936;12.742;2022-07-22T07:13:02;20.20;61.60
36280;DHT22;22317;47.936;12.742;2022-07-22T07:15:41;20.30;60.80
36280;DHT22;22317;47.936;12.742;2022-07-22T07:18:09;20.30;61.20
36280;DHT22;22317;47.936;12.742;2022-07-22T07:20:39;20.40;61.10
36280;DHT22;22317;47.936;12.742;2022-07-22T07:23:07;20.40;60.90
36280;DHT22;22317;47.936;12.742;2022-07-22T07:25:36;20.50;60.20
36280;DHT22;22317;47.936;12.742;2022-07-22T07:28:02;20.50;60.60
36280;DHT22;22317;47.936;12.742;2022-07-22T07:30:48;20.60;60.50
36280;DHT22;22317;47.936;12.742;2022-07-22T07:33:14;20.60;61.20
36280;DHT22;22317;47.936;12.742;2022-07-22T07:35:41;20.70;60.60
36280;DHT22;22317;47.936;12.742;2022-07-22T07:38:07;20.70;60.50
36280;DHT22;22317;47.936;12.742;2022-07-22T07:40:33;20.80;60.30
36280;DHT22;22317;47.936;12.742;2022-07-22T07:42:59;20.90;60.10
36280;DHT22;22317;47.936;12.742;2022-07-22T07:45:26;21.10;59.50
36280;DHT22;22317;47.936;12.742;2022-07-22T07:47:51;21.10;59.90
36280;DHT22;22317;47.936;12.742;2022-07-22T07:50:17;21.20;59.80
36280;DHT22;22317;47.936;12.742;2022-07-22T07:52:44;21.30;59.80
36280;DHT22;22317;47.936;12.742;2022-07-22T07:55:14;21.40;59.50
36280;DHT22;22317;47.936;12.742;2022-07-22T07:57:41;21.50;59.40
36280;DHT22;22317;47.936;12.742;2022-07-22T08:00:11;21.60;59.30
36280;DHT22;22317;47.936;12.742;2022-07-22T08:02:41;21.70;59.10
36280;DHT22;22317;47.936;12.742;2022-07-22T08:05:10;21.80;58.30
36280;DHT22;22317;47.936;12.742;2022-07-22T08:07:37;21.90;58.60
36280;DHT22;22317;47.936;12.742;2022-07-22T08:10:04;25.70;61.00
36280;DHT22;22317;47.936;12.742;2022-07-22T08:13:09;22.20;58.30
36280;DHT22;22317;47.936;12.742;2022-07-22T08:15:42;22.30;58.00
36280;DHT22;22317;47.936;12.742;2022-07-22T08:18:15;22.40;57.80
36280;DHT22;22317;47.936;12.742;2022-07-22T08:20:41;22.50;57.50
36280;DHT22;22317;47.936;12.742;2022-07-22T08:23:07;22.60;57.40
36280;DHT22;22317;47.936;12.742;2022-07-22T08:25:33;22.70;57.20
36280;DHT22;22317;47.936;12.742;2022-07-22T08:28:02;22.80;57.00
36280;DHT22;22317;47.936;12.742;2022-07-22T08:30:31;23.00;56.90
36280;DHT22;22317;47.936;12.742;2022-07-22T08:32:58;23.10;56.50
36280;DHT22;22317;47.936;12.742;2022-07-22T08:35:24;23.30;55.70
36280;DHT22;22317;47.936;12.742;2022-07-22T08:37:50;23.30;55.90
36280;DHT22;22317;47.936;12.742;2022-07-22T08:40:17;23.40;55.60
36280;DHT22;22317;47.936;12.742;2022-07-22T08:42:44;23.50;55.30
36280;DHT22;22317;47.936;12.742;2022-07-22T08:45:11;23.70;54.50
36280;DHT22;22317;47.936;12.742;2022-07-22T08:47:38;23.80;54.80
36280;DHT22;22317;47.936;12.742;2022-07-22T08:50:22;23.80;54.40
36280;DHT22;22317;47.936;12.742;2022-07-22T08:52:56;23.90;54.20
36280;DHT22;22317;47.936;12.742;2022-07-22T08:55:23;24.10;53.50
36280;DHT22;22317;47.936;12.742;2022-07-22T08:57:49;24.10;53.80
36280;DHT22;22317;47.936;12.742;2022-07-22T09:00:19;24.20;53.60
36280;DHT22;22317;47.936;12.742;2022-07-22T09:02:45;24.30;53.00
36280;DHT22;22317;47.936;12.742;2022-07-22T09:05:15;24.50;52.20
36280;DHT22;22317;47.936;12.742;2022-07-22T09:07:45;24.50;52.40
36280;DHT22;22317;47.936;12.742;2022-07-22T09:10:24;24.70;51.90
36280;DHT22;22317;47.936;12.742;2022-07-22T09:13:15;24.70;51.70
36280;DHT22;22317;47.936;12.742;2022-07-22T09:15:54;24.80;51.70
36280;DHT22;22317;47.936;12.742;2022-07-22T09:19:05;24.90;51.60
36280;DHT22;22317;47.936;12.742;2022-07-22T09:21:54;25.10;51.30
36280;DHT22;22317;47.936;12.742;2022-07-22T09:24:31;25.20;51.30
36280;DHT22;22317;47.936;12.742;2022-07-22T09:27:23;25.30;50.20
36280;DHT22;22317;47.936;12.742;2022-07-22T09:30:18;25.50;50.50
36280;DHT22;22317;47.936;12.742;2022-07-22T09:32:53;25.60;50.10
36280;DHT22;22317;47.936;12.742;2022-07-22T09:35:39;25.60;49.90
36280;DHT22;22317;47.936;12.742;2022-07-22T09:38:09;25.80;49.70
36280;DHT22;22317;47.936;12.742;2022-07-22T09:40:40;25.90;49.30
36280;DHT22;22317;47.936;12.742;2022-07-22T09:43:11;25.90;49.10
36280;DHT22;22317;47.936;12.742;2022-07-22T09:45:51;26.10;48.40
36280;DHT22;22317;47.936;12.742;2022-07-22T09:48:22;26.20;48.20
36280;DHT22;22317;47.936;12.742;2022-07-22T09:51:20;26.30;48.10
36280;DHT22;22317;47.936;12.742;2022-07-22T09:54:03;29.40;50.00
36280;DHT22;22317;47.936;12.742;2022-07-22T09:56:31;26.40;48.40
36280;DHT22;22317;47.936;12.742;2022-07-22T09:58:57;26.50;47.50
36280;DHT22;22317;47.936;12.742;2022-07-22T10:01:29;26.60;47.40
36280;DHT22;22317;47.936;12.742;2022-07-22T10:03:55;26.70;47.20
36280;DHT22;22317;47.936;12.742;2022-07-22T10:06:21;26.80;46.70
36280;DHT22;22317;47.936;12.742;2022-07-22T10:08:50;26.80;46.40
36280;DHT22;22317;47.936;12.742;2022-07-22T10:11:17;27.00;46.20
36280;DHT22;22317;47.936;12.742;2022-07-22T10:13:44;27.10;46.00
36280;DHT22;22317;47.936;12.742;2022-07-22T10:16:12;27.10;45.90
36280;DHT22;22317;47.936;12.742;2022-07-22T10:18:38;27.20;45.50
36280;DHT22;22317;47.936;12.742;2022-07-22T10:21:09;27.30;45.40
36280;DHT22;22317;47.936;12.742;2022-07-22T10:23:36;27.30;44.90
36280;DHT22;22317;47.936;12.742;2022-07-22T10:26:48;27.50;44.50
36280;DHT22;22317;47.936;12.742;2022-07-22T10:29:38;27.60;43.80
36280;DHT22;22317;47.936;12.742;2022-07-22T10:45:32;28.10;41.50
36280;DHT22;22317;47.936;12.742;2022-07-22T10:48:03;28.10;41.50
36280;DHT22;22317;47.936;12.742;2022-07-22T10:53:11;28.30;41.00
36280;DHT22;22317;47.936;12.742;2022-07-22T10:55:56;28.40;40.80
36280;DHT22;22317;47.936;12.742;2022-07-22T11:01:06;28.60;40.10
36280;DHT22;22317;47.936;12.742;2022-07-22T11:03:33;28.60;39.80
36280;DHT22;22317;47.936;12.742;2022-07-22T11:06:23;28.70;39.80
36280;DHT22;22317;47.936;12.742;2022-07-22T11:08:55;28.80;38.80
36280;DHT22;22317;47.936;12.742;2022-07-22T11:11:41;28.80;38.80
36280;DHT22;22317;47.936;12.742;2022-07-22T11:14:34;28.90;38.10
36280;DHT22;22317;47.936;12.742;2022-07-22T11:19:30;29.00;38.50
36280;DHT22;22317;47.936;12.742;2022-07-22T11:22:02;29.10;38.40
36280;DHT22;22317;47.936;12.742;2022-07-22T11:24:30;29.30;38.20
36280;DHT22;22317;47.936;12.742;2022-07-22T11:26:58;29.50;37.00
36280;DHT22;22317;47.936;12.742;2022-07-22T11:29:28;29.50;37.60
36280;DHT22;22317;47.936;12.742;2022-07-22T11:31:56;29.60;37.30
36280;DHT22;22317;47.936;12.742;2022-07-22T11:34:22;29.80;37.70
36280;DHT22;22317;47.936;12.742;2022-07-22T11:36:49;29.90;35.40
36280;DHT22;22317;47.936;12.742;2022-07-22T11:39:19;30.00;36.20
36280;DHT22;22317;47.936;12.742;2022-07-22T11:41:45;30.10;35.80
36280;DHT22;22317;47.936;12.742;2022-07-22T11:44:11;30.10;35.70
36280;DHT22;22317;47.936;12.742;2022-07-22T11:46:42;30.20;34.80
36280;DHT22;22317;47.936;12.742;2022-07-22T11:49:09;30.30;35.40
36280;DHT22;22317;47.936;12.742;2022-07-22T11:51:37;30.40;35.40
36280;DHT22;22317;47.936;12.742;2022-07-22T11:54:04;30.50;35.20
36280;DHT22;22317;47.936;12.742;2022-07-22T11:56:30;30.60;34.80
36280;DHT22;22317;47.936;12.742;2022-07-22T11:58:57;30.70;35.30
36280;DHT22;22317;47.936;12.742;2022-07-22T12:01:27;30.80;35.30
36280;DHT22;22317;47.936;12.742;2022-07-22T12:03:59;30.80;35.30
36280;DHT22;22317;47.936;12.742;2022-07-22T12:06:27;30.90;34.70
36280;DHT22;22317;47.936;12.742;2022-07-22T12:08:55;31.00;35.20
36280;DHT22;22317;47.936;12.742;2022-07-22T12:11:23;31.10;35.00
36280;DHT22;22317;47.936;12.742;2022-07-22T12:13:52;31.30;35.00
36280;DHT22;22317;47.936;12.742;2022-07-22T12:16:26;31.30;35.30
36280;DHT22;22317;47.936;12.742;2022-07-22T12:21:22;31.50;34.50
36280;DHT22;22317;47.936;12.742;2022-07-22T12:23:53;31.60;34.30
36280;DHT22;22317;47.936;12.742;2022-07-22T12:26:19;31.70;33.70
36280;DHT22;22317;47.936;12.742;2022-07-22T12:29:26;31.70;34.00
36280;DHT22;22317;47.936;12.742;2022-07-22T12:31:55;31.80;33.50
36280;DHT22;22317;47.936;12.742;2022-07-22T12:34:39;31.90;33.70
36280;DHT22;22317;47.936;12.742;2022-07-22T12:37:21;32.00;33.30
36280;DHT22;22317;47.936;12.742;2022-07-22T12:39:58;32.00;33.90
36280;DHT22;22317;47.936;12.742;2022-07-22T12:42:36;32.10;33.80
36280;DHT22;22317;47.936;12.742;2022-07-22T12:45:19;32.30;33.20
36280;DHT22;22317;47.936;12.742;2022-07-22T12:47:55;32.30;33.20
36280;DHT22;22317;47.936;12.742;2022-07-22T12:50:24;32.30;33.30
36280;DHT22;22317;47.936;12.742;2022-07-22T12:52:52;32.40;33.30
36280;DHT22;22317;47.936;12.742;2022-07-22T12:55:18;32.40;33.10
36280;DHT22;22317;47.936;12.742;2022-07-22T12:57:44;32.60;32.90
36280;DHT22;22317;47.936;12.742;2022-07-22T13:00:10;32.60;32.50
36280;DHT22;22317;47.936;12.742;2022-07-22T13:02:40;32.70;32.40
36280;DHT22;22317;47.936;12.742;2022-07-22T13:05:06;32.80;31.90
36280;DHT22;22317;47.936;12.742;2022-07-22T13:07:35;32.80;32.10
36280;DHT22;22317;47.936;12.742;2022-07-22T13:10:01;32.90;31.90
36280;DHT22;22317;47.936;12.742;2022-07-22T13:12:30;32.90;31.90
36280;DHT22;22317;47.936;12.742;2022-07-22T13:14:56;33.00;32.20
36280;DHT22;22317;47.936;12.742;2022-07-22T13:17:21;33.00;32.30
36280;DHT22;22317;47.936;12.742;2022-07-22T13:19:47;33.10;32.30
36280;DHT22;22317;47.936;12.742;2022-07-22T13:22:13;33.20;32.40
36280;DHT22;22317;47.936;12.742;2022-07-22T13:24:38;36.50;34.40
36280;DHT22;22317;47.936;12.742;2022-07-22T13:27:04;33.40;32.10
36280;DHT22;22317;47.936;12.742;2022-07-22T13:29:30;33.50;31.90
36280;DHT22;22317;47.936;12.742;2022-07-22T13:31:56;33.50;31.90
36280;DHT22;22317;47.936;12.742;2022-07-22T13:34:21;33.60;31.90
36280;DHT22;22317;47.936;12.742;2022-07-22T13:36:47;33.60;31.80
36280;DHT22;22317;47.936;12.742;2022-07-22T13:39:13;33.60;31.50
36280;DHT22;22317;47.936;12.742;2022-07-22T13:41:39;33.70;31.40
36280;DHT22;22317;47.936;12.742;2022-07-22T13:44:05;33.70;31.10
36280;DHT22;22317;47.936;12.742;2022-07-22T13:46:36;33.80;31.20
36280;DHT22;22317;47.936;12.742;2022-07-22T13:49:02;33.90;31.00
36280;DHT22;22317;47.936;12.742;2022-07-22T13:51:28;33.90;31.00
36280;DHT22;22317;47.936;12.742;2022-07-22T13:53:54;34.00;30.90
36280;DHT22;22317;47.936;12.742;2022-07-22T13:56:19;34.00;31.00
36280;DHT22;22317;47.936;12.742;2022-07-22T13:58:45;34.10;30.50
36280;DHT22;22317;47.936;12.742;2022-07-22T14:01:20;34.10;30.40
36280;DHT22;22317;47.936;12.742;2022-07-22T14:03:47;34.00;30.10
36280;DHT22;22317;47.936;12.742;2022-07-22T14:06:13;34.00;30.40
36280;DHT22;22317;47.936;12.742;2022-07-22T14:08:38;34.10;30.40
36280;DHT22;22317;47.936;12.742;2022-07-22T14:11:04;34.10;30.20
36280;DHT22;22317;47.936;12.742;2022-07-22T14:13:30;34.10;30.10
36280;DHT22;22317;47.936;12.742;2022-07-22T14:15:56;34.00;29.80
36280;DHT22;22317;47.936;12.742;2022-07-22T14:18:22;34.00;30.10
36280;DHT22;22317;47.936;12.742;2022-07-22T14:20:47;34.00;29.90
36280;DHT22;22317;47.936;12.742;2022-07-22T14:23:13;34.10;29.80
36280;DHT22;22317;47.936;12.742;2022-07-22T14:25:41;34.10;29.90
36280;DHT22;22317;47.936;12.742;2022-07-22T14:28:09;34.10;30.10
36280;DHT22;22317;47.936;12.742;2022-07-22T14:30:35;34.10;29.80
36280;DHT22;22317;47.936;12.742;2022-07-22T14:33:02;34.10;29.60
36280;DHT22;22317;47.936;12.742;2022-07-22T14:35:31;34.10;29.60
36280;DHT22;22317;47.936;12.742;2022-07-22T14:38:00;34.10;29.40
36280;DHT22;22317;47.936;12.742;2022-07-22T14:40:25;34.00;29.50
36280;DHT22;22317;47.936;12.742;2022-07-22T14:42:51;34.00;29.60
36280;DHT22;22317;47.936;12.742;2022-07-22T14:45:17;34.00;29.50
36280;DHT22;22317;47.936;12.742;2022-07-22T14:47:43;33.90;29.00
36280;DHT22;22317;47.936;12.742;2022-07-22T14:50:08;34.00;29.60
36280;DHT22;22317;47.936;12.742;2022-07-22T14:52:34;33.90;29.30
36280;DHT22;22317;47.936;12.742;2022-07-22T14:55:01;33.70;29.10
36280;DHT22;22317;47.936;12.742;2022-07-22T14:57:30;33.80;29.40
36280;DHT22;22317;47.936;12.742;2022-07-22T14:59:55;33.80;29.40
36280;DHT22;22317;47.936;12.742;2022-07-22T15:02:24;33.80;29.50
36280;DHT22;22317;47.936;12.742;2022-07-22T15:04:50;33.70;29.30
36280;DHT22;22317;47.936;12.742;2022-07-22T15:07:16;33.70;29.60
36280;DHT22;22317;47.936;12.742;2022-07-22T15:09:42;33.70;29.70
36280;DHT22;22317;47.936;12.742;2022-07-22T15:12:07;33.70;29.80
36280;DHT22;22317;47.936;12.742;2022-07-22T15:14:33;33.60;29.80
36280;DHT22;22317;47.936;12.742;2022-07-22T15:16:59;33.60;29.60
36280;DHT22;22317;47.936;12.742;2022-07-22T15:19:31;30.30;28.70
36280;DHT22;22317;47.936;12.742;2022-07-22T15:21:56;33.50;30.20
36280;DHT22;22317;47.936;12.742;2022-07-22T15:24:23;33.40;30.10
36280;DHT22;22317;47.936;12.742;2022-07-22T15:26:50;33.30;29.80
36280;DHT22;22317;47.936;12.742;2022-07-22T15:29:16;33.20;30.30
36280;DHT22;22317;47.936;12.742;2022-07-22T15:31:42;33.20;30.20
36280;DHT22;22317;47.936;12.742;2022-07-22T15:34:08;33.20;30.30
36280;DHT22;22317;47.936;12.742;2022-07-22T15:36:33;33.10;29.90
36280;DHT22;22317;47.936;12.742;2022-07-22T15:38:59;33.10;30.50
36280;DHT22;22317;47.936;12.742;2022-07-22T15:41:25;33.00;30.50
36280;DHT22;22317;47.936;12.742;2022-07-22T15:43:51;33.00;30.60
36280;DHT22;22317;47.936;12.742;2022-07-22T15:46:17;32.90;30.60
36280;DHT22;22317;47.936;12.742;2022-07-22T15:48:43;32.80;30.70
36280;DHT22;22317;47.936;12.742;2022-07-22T15:51:09;32.80;31.10
36280;DHT22;22317;47.936;12.742;2022-07-22T15:53:36;32.70;31.20
36280;DHT22;22317;47.936;12.742;2022-07-22T15:56:02;32.60;31.30
36280;DHT22;22317;47.936;12.742;2022-07-22T15:58:28;32.60;31.30
36280;DHT22;22317;47.936;12.742;2022-07-22T16:01:12;32.40;31.40
36280;DHT22;22317;47.936;12.742;2022-07-22T16:03:38;32.40;31.60
36280;DHT22;22317;47.936;12.742;2022-07-22T16:06:04;32.30;31.20
36280;DHT22;22317;47.936;12.742;2022-07-22T16:08:30;32.30;31.80
36280;DHT22;22317;47.936;12.742;2022-07-22T16:10:56;32.10;31.90
36280;DHT22;22317;47.936;12.742;2022-07-22T16:13:22;32.00;31.90
36280;DHT22;22317;47.936;12.742;2022-07-22T16:15:48;31.90;31.60
36280;DHT22;22317;47.936;12.742;2022-07-22T16:18:14;31.80;31.60
36280;DHT22;22317;47.936;12.742;2022-07-22T16:20:41;31.80;32.10
36280;DHT22;22317;47.936;12.742;2022-07-22T16:23:06;31.70;32.30
36280;DHT22;22317;47.936;12.742;2022-07-22T16:25:32;31.60;31.90
36280;DHT22;22317;47.936;12.742;2022-07-22T16:27:58;31.60;32.50
36280;DHT22;22317;47.936;12.742;2022-07-22T16:30:24;31.40;32.50
36280;DHT22;22317;47.936;12.742;2022-07-22T16:32:50;31.30;32.70
36280;DHT22;22317;47.936;12.742;2022-07-22T16:35:15;31.20;32.70
36280;DHT22;22317;47.936;12.742;2022-07-22T16:37:42;31.00;32.30
36280;DHT22;22317;47.936;12.742;2022-07-22T16:40:08;31.00;33.10
36280;DHT22;22317;47.936;12.742;2022-07-22T16:42:34;30.80;33.40
36280;DHT22;22317;47.936;12.742;2022-07-22T16:45:00;30.50;33.10
36280;DHT22;22317;47.936;12.742;2022-07-22T16:47:25;30.60;33.80
36280;DHT22;22317;47.936;12.742;2022-07-22T16:49:52;30.40;34.00
36280;DHT22;22317;47.936;12.742;2022-07-22T16:52:18;30.30;34.30
36280;DHT22;22317;47.936;12.742;2022-07-22T17:02:03;29.90;34.30
36280;DHT22;22317;47.936;12.742;2022-07-22T17:04:29;29.80;34.80
36280;DHT22;22317;47.936;12.742;2022-07-22T17:09:21;29.70;35.20
36280;DHT22;22317;47.936;12.742;2022-07-22T17:16:39;29.60;35.20
36280;DHT22;22317;47.936;12.742;2022-07-22T17:24:00;29.40;35.50
36280;DHT22;22317;47.936;12.742;2022-07-22T17:28:52;29.10;35.50
36280;DHT22;22317;47.936;12.742;2022-07-22T17:31:18;29.10;35.80
36280;DHT22;22317;47.936;12.742;2022-07-22T17:38:36;28.90;36.30
36280;DHT22;22317;47.936;12.742;2022-07-22T17:43:29;28.70;36.80
36280;DHT22;22317;47.936;12.742;2022-07-22T17:45:57;28.60;37.00
36280;DHT22;22317;47.936;12.742;2022-07-22T18:03:01;27.90;38.20
36280;DHT22;22317;47.936;12.742;2022-07-22T18:05:26;27.90;38.40
36280;DHT22;22317;47.936;12.742;2022-07-22T18:07:52;27.80;38.50
36280;DHT22;22317;47.936;12.742;2022-07-22T18:24:57;27.10;39.80
36280;DHT22;22317;47.936;12.742;2022-07-22T18:29:52;26.90;40.20
36280;DHT22;22317;47.936;12.742;2022-07-22T18:47:01;26.10;41.90
36280;DHT22;22317;47.936;12.742;2022-07-22T19:01:42;25.50;43.20
36280;DHT22;22317;47.936;12.742;2022-07-22T19:28:43;24.60;45.30
36280;DHT22;22317;47.936;12.742;2022-07-22T19:38:33;24.40;46.10
36280;DHT22;22317;47.936;12.742;2022-07-22T19:43:28;24.30;46.50
36280;DHT22;22317;47.936;12.742;2022-07-22T20:17:36;23.30;50.90
36280;DHT22;22317;47.936;12.742;2022-07-22T20:20:02;23.20;51.30
36280;DHT22;22317;47.936;12.742;2022-07-22T20:56:39;22.70;53.10
36280;DHT22;22317;47.936;12.742;2022-07-22T21:16:07;22.50;54.30
36280;DHT22;22317;47.936;12.742;2022-07-22T21:42:56;21.90;53.70
36280;DHT22;22317;47.936;12.742;2022-07-22T21:55:07;21.90;51.70
36280;DHT22;22317;47.936;12.742;2022-07-22T22:26:48;22.00;53.80
36280;DHT22;22317;47.936;12.742;2022-07-22T22:36:33;22.00;53.80
36280;DHT22;22317;47.936;12.742;2022-07-22T22:41:27;22.00;53.90
36280;DHT22;22317;47.936;12.742;2022-07-22T22:46:19;22.00;53.80
36280;DHT22;22317;47.936;12.742;2022-07-22T22:48:46;22.00;53.80
36280;DHT22;22317;47.936;12.742;2022-07-22T22:53:41;22.00;53.70
36280;DHT22;22317;47.936;12.742;2022-07-22T22:56:07;22.00;53.70
36280;DHT22;22317;47.936;12.742;2022-07-22T22:58:35;22.00;53.80
36280;DHT22;22317;47.936;12.742;2022-07-22T23:01:02;22.00;53.80
36280;DHT22;22317;47.936;12.742;2022-07-22T23:10:49;21.90;53.70
36280;DHT22;22317;47.936;12.742;2022-07-22T23:15:41;21.80;53.60
36280;DHT22;22317;47.936;12.742;2022-07-22T23:20:33;21.70;53.30
36280;DHT22;22317;47.936;12.742;2022-07-22T23:23:18;21.70;53.10
36280;DHT22;22317;47.936;12.742;2022-07-22T23:25:44;21.70;52.90
36280;DHT22;22317;47.936;12.742;2022-07-22T23:38:00;21.40;50.80
36280;DHT22;22317;47.936;12.742;2022-07-22T23:57:32;21.10;49.30
36280;DHT22;22317;47.936;12.742;2022-07-22T23:59:58;21.20;49.30
